Time;durP1;ratioP1;P1;durP2;ratioP2;P2;SDS_P1;SDS_P2;PMS_P1;PMS_P2;Temp;Humidity;BMP_temperature;BMP_pressure;BME280_temperature;BME280_humidity;BME280_pressure;Samples;Min_cycle;Max_cycle;Signal;HPM_P1;HPM_P2
2022/12/31 00:00:40;;;;;;;2.40;2.20;;;;;;;16.07;100.00;96296.13;5055742;28;20099;-45
2022/12/31 00:03:09;;;;;;;2.33;2.13;;;;;;;16.11;100.00;96300.09;5050016;28;20085;-40
2022/12/31 00:05:39;;;;;;;2.05;1.85;;;;;;;16.30;100.00;96302.19;5052574;28;20087;-41
2022/12/31 00:08:07;;;;;;;1.80;1.70;;;;;;;16.44;100.00;96299.69;5052640;28;20088;-38
2022/12/31 00:10:40;;;;;;;1.80;1.70;;;;;;;16.59;100.00;96304.00;5055487;28;20111;-39
2022/12/31 00:13:09;;;;;;;1.55;1.45;;;;;;;17.19;100.00;96291.38;5052356;28;20091;-41
2022/12/31 00:15:38;;;;;;;1.90;1.70;;;;;;;17.15;100.00;96289.28;5049097;28;20080;-43
2022/12/31 00:18:07;;;;;;;1.77;1.67;;;;;;;17.03;100.00;96292.47;5050902;28;20088;-39
2022/12/31 00:20:41;;;;;;;1.65;1.55;;;;;;;17.22;100.00;96288.31;5050129;28;20087;-48
2022/12/31 00:23:10;;;;;;;1.73;1.63;;;;;;;17.46;100.00;96286.28;5053517;28;20096;-39
2022/12/31 00:25:38;;;;;;;1.67;1.58;;;;;;;17.37;100.00;96282.91;5053364;28;20081;-37
2022/12/31 00:28:07;;;;;;;1.75;1.65;;;;;;;17.05;100.00;96285.06;5050723;28;20041;-38
2022/12/31 00:30:35;;;;;;;1.50;1.40;;;;;;;17.49;100.00;96278.72;5047664;28;20081;-40
2022/12/31 00:33:03;;;;;;;1.58;1.40;;;;;;;17.39;100.00;96264.09;5052579;28;20084;-44
2022/12/31 00:35:33;;;;;;;2.90;1.70;;;;;;;17.18;100.00;96283.56;5047919;28;20084;-38
2022/12/31 00:38:03;;;;;;;1.58;1.48;;;;;;;17.41;100.00;96286.88;5054775;28;20164;-39
2022/12/31 00:40:31;;;;;;;1.67;1.57;;;;;;;17.31;100.00;96289.03;5050874;28;20088;-41
2022/12/31 00:42:59;;;;;;;1.65;1.55;;;;;;;16.94;100.00;96304.22;5056059;28;20084;-44
2022/12/31 00:45:28;;;;;;;1.60;1.50;;;;;;;17.16;100.00;96301.59;5050927;28;20087;-39
2022/12/31 00:47:56;;;;;;;1.80;1.70;;;;;;;17.41;100.00;96296.69;5054779;28;20079;-37
2022/12/31 00:50:25;;;;;;;1.60;1.50;;;;;;;16.95;100.00;96303.22;5054056;28;20080;-44
2022/12/31 00:52:53;;;;;;;1.50;1.40;;;;;;;16.73;100.00;96307.66;5057060;28;20557;-37
2022/12/31 00:55:23;;;;;;;1.60;1.50;;;;;;;17.03;100.00;96313.78;5054012;28;20076;-42
2022/12/31 00:57:51;;;;;;;1.40;1.30;;;;;;;17.25;100.00;96321.78;5054664;28;20528;-39
2022/12/31 01:00:20;;;;;;;1.48;1.38;;;;;;;16.99;100.00;96319.63;5053307;28;20092;-36
2022/12/31 01:02:48;;;;;;;1.50;1.40;;;;;;;17.61;100.00;96315.53;5056893;28;20080;-41
2022/12/31 01:05:17;;;;;;;1.50;1.40;;;;;;;17.25;100.00;96329.78;5055257;28;20114;-40
2022/12/31 01:07:45;;;;;;;1.55;1.45;;;;;;;17.52;100.00;96318.34;5054653;28;20085;-41
2022/12/31 01:11:17;;;;;;;1.50;1.40;;;;;;;17.22;100.00;96322.16;5055877;28;20099;-42
2022/12/31 01:13:03;;;;;;;1.65;1.52;;;;;;;17.17;100.00;96332.53;5052815;28;20695;-38
2022/12/31 01:15:33;;;;;;;1.60;1.50;;;;;;;17.49;100.00;96328.56;5053402;28;20079;-38
2022/12/31 01:18:02;;;;;;;1.60;1.50;;;;;;;17.71;100.00;96338.19;5052437;28;20084;-39
2022/12/31 01:20:35;;;;;;;1.58;1.40;;;;;;;17.55;100.00;96339.28;5071614;28;20693;-40
2022/12/31 01:23:04;;;;;;;1.50;1.40;;;;;;;18.00;100.00;96358.59;5056329;28;20080;-40
2022/12/31 01:25:35;;;;;;;1.50;1.40;;;;;;;18.26;100.00;96347.25;5059337;28;20095;-39
2022/12/31 01:28:06;;;;;;;1.30;1.30;;;;;;;17.83;100.00;96341.22;5055761;28;20052;-43
2022/12/31 01:30:38;;;;;;;1.20;1.20;;;;;;;17.95;100.00;96371.66;5053122;28;20529;-43
2022/12/31 01:33:07;;;;;;;1.45;1.20;;;;;;;18.09;100.00;96377.09;5055651;28;20080;-44
2022/12/31 01:35:36;;;;;;;1.40;1.30;;;;;;;18.22;100.00;96378.03;5053744;28;20107;-40
2022/12/31 01:38:04;;;;;;;1.20;1.20;;;;;;;18.63;100.00;96374.59;5060646;28;20126;-49
2022/12/31 01:40:36;;;;;;;1.20;1.20;;;;;;;18.44;100.00;96381.47;5055287;28;20470;-40
2022/12/31 01:43:15;;;;;;;2.67;1.40;;;;;;;18.50;100.00;96380.69;5051891;28;20111;-42
2022/12/31 01:45:45;;;;;;;1.38;1.30;;;;;;;18.60;100.00;96380.31;5054369;28;20080;-37
2022/12/31 01:48:16;;;;;;;1.63;1.20;;;;;;;18.65;100.00;96391.25;5049896;28;20079;-39
2022/12/31 01:50:47;;;;;;;1.40;1.30;;;;;;;18.73;100.00;96382.28;5056773;28;20478;-42
2022/12/31 01:53:17;;;;;;;1.25;1.20;;;;;;;19.27;100.00;96381.50;5057153;28;20107;-37
2022/12/31 01:55:48;;;;;;;1.27;1.20;;;;;;;19.33;100.00;96379.84;5055126;28;20052;-40
2022/12/31 01:58:23;;;;;;;1.40;1.30;;;;;;;18.57;100.00;96386.06;5051550;28;20053;-39
2022/12/31 02:00:52;;;;;;;1.27;1.20;;;;;;;18.75;100.00;96382.91;5052493;28;20520;-43
2022/12/31 02:03:22;;;;;;;1.30;1.20;;;;;;;19.16;100.00;96380.19;5048816;28;20101;-43
2022/12/31 02:05:54;;;;;;;1.20;1.20;;;;;;;18.77;100.00;96383.53;5054266;28;20588;-49
2022/12/31 02:08:23;;;;;;;1.40;1.30;;;;;;;19.17;100.00;96381.88;5052670;28;20079;-44
2022/12/31 02:10:53;;;;;;;1.10;1.10;;;;;;;19.00;100.00;96387.75;5060365;28;20044;-39
2022/12/31 02:13:23;;;;;;;1.40;1.30;;;;;;;18.94;100.00;96386.69;5053264;28;20082;-45
2022/12/31 02:15:57;;;;;;;1.48;1.38;;;;;;;18.90;100.00;96369.44;5053617;28;20084;-44
2022/12/31 02:18:30;;;;;;;1.42;1.33;;;;;;;18.72;100.00;96376.13;5051566;28;20088;-36
2022/12/31 02:21:18;;;;;;;1.40;1.20;;;;;;;18.80;100.00;96379.66;5060715;28;20114;-39
2022/12/31 02:24:30;;;;;;;1.40;1.30;;;;;;;18.64;100.00;96380.75;5053274;28;20091;-41
2022/12/31 02:27:02;;;;;;;1.30;1.20;;;;;;;18.92;100.00;96376.19;5052525;28;20133;-41
2022/12/31 02:29:53;;;;;;;1.23;1.20;;;;;;;18.67;100.00;96378.50;5050679;28;20095;-38
2022/12/31 02:32:24;;;;;;;3.80;1.20;;;;;;;19.02;100.00;96378.50;5049407;28;20102;-38
2022/12/31 02:34:57;;;;;;;1.25;1.20;;;;;;;19.20;100.00;96383.28;5049464;28;20556;-42
2022/12/31 02:37:27;;;;;;;1.13;1.13;;;;;;;18.69;100.00;96381.00;5054823;28;20055;-39
2022/12/31 02:39:55;;;;;;;1.98;1.30;;;;;;;18.92;100.00;96384.22;5054184;28;20798;-39
2022/12/31 02:42:24;;;;;;;1.30;1.20;;;;;;;18.99;100.00;96381.56;5052149;28;20076;-38
2022/12/31 02:44:54;;;;;;;1.10;1.10;;;;;;;18.86;100.00;96385.03;5051754;28;20075;-40
2022/12/31 02:47:31;;;;;;;1.10;1.10;;;;;;;19.31;100.00;96382.72;5053250;28;20662;-38
2022/12/31 02:50:11;;;;;;;1.27;1.20;;;;;;;18.74;100.00;96384.75;5057325;28;20277;-41
2022/12/31 02:52:46;;;;;;;1.17;1.13;;;;;;;19.39;99.87;96392.41;5054873;28;20559;-41
2022/12/31 02:55:19;;;;;;;1.30;1.20;;;;;;;19.43;100.00;96393.66;5055210;28;20162;-43
2022/12/31 02:57:50;;;;;;;1.30;1.20;;;;;;;19.38;100.00;96390.78;5053090;28;20064;-43
2022/12/31 03:03:08;;;;;;;1.23;1.13;;;;;;;18.95;100.00;96396.34;5057801;28;20110;-37
2022/12/31 03:05:39;;;;;;;1.10;1.10;;;;;;;19.60;94.45;96391.44;5058074;28;20084;-38
2022/12/31 03:08:08;;;;;;;1.10;1.10;;;;;;;19.36;100.00;96398.16;5059647;28;20036;-44
2022/12/31 03:10:37;;;;;;;1.10;1.10;;;;;;;19.11;100.00;96406.72;5046523;28;20065;-38
2022/12/31 03:13:05;;;;;;;1.20;1.10;;;;;;;19.49;97.50;96408.09;5048022;28;20532;-39
2022/12/31 03:15:35;;;;;;;1.10;1.10;;;;;;;19.73;95.03;96404.06;5052378;28;20519;-39
2022/12/31 03:18:05;;;;;;;1.17;1.10;;;;;;;19.34;96.99;96410.91;5051454;28;20130;-39
2022/12/31 03:23:25;;;;;;;1.40;1.30;;;;;;;19.40;98.16;96412.78;5053978;28;20528;-44
2022/12/31 03:25:54;;;;;;;1.48;1.10;;;;;;;19.58;94.09;96414.88;5049947;28;20072;-43
2022/12/31 03:28:25;;;;;;;1.00;1.00;;;;;;;19.23;100.00;96416.81;5053114;28;20033;-41
2022/12/31 03:30:58;;;;;;;1.10;1.10;;;;;;;19.70;95.13;96423.19;5050298;28;20544;-49
2022/12/31 03:33:30;;;;;;;2.15;1.00;;;;;;;19.68;92.06;96421.53;5050888;28;20052;-43
2022/12/31 03:35:59;;;;;;;1.33;1.00;;;;;;;19.83;90.89;96424.03;5051757;28;20099;-39
2022/12/31 03:38:28;;;;;;;1.08;1.08;;;;;;;19.62;92.94;96419.63;5048066;28;20068;-43
2022/12/31 03:40:56;;;;;;;1.00;1.00;;;;;;;19.43;91.80;96415.88;5050987;28;20060;-38
2022/12/31 03:43:25;;;;;;;1.77;1.20;;;;;;;19.29;96.52;96421.38;5049353;28;20064;-38
2022/12/31 03:45:58;;;;;;;1.35;1.10;;;;;;;19.66;93.00;96426.25;5051734;28;20029;-42
2022/12/31 03:48:27;;;;;;;1.27;1.20;;;;;;;19.66;92.02;96430.78;5052875;28;20436;-42
2022/12/31 03:50:55;;;;;;;1.20;1.10;;;;;;;19.30;93.33;96431.88;5054590;28;20454;-50
2022/12/31 03:53:24;;;;;;;3.75;1.02;;;;;;;19.26;98.82;96438.66;5051049;28;20090;-44
2022/12/31 03:55:53;;;;;;;0.95;0.95;;;;;;;18.98;100.00;96439.53;5055959;28;20048;-44
2022/12/31 03:58:22;;;;;;;1.02;1.02;;;;;;;19.19;97.08;96440.47;5054922;28;20091;-41
2022/12/31 04:00:51;;;;;;;2.25;1.00;;;;;;;19.19;99.23;96437.78;5052987;28;20581;-43
2022/12/31 04:03:21;;;;;;;1.10;1.10;;;;;;;19.10;100.00;96436.34;5055286;28;20465;-40
2022/12/31 04:05:54;;;;;;;1.20;1.20;;;;;;;19.17;100.00;96442.53;5050509;28;20041;-37
2022/12/31 04:08:23;;;;;;;1.17;1.17;;;;;;;19.22;97.18;96448.09;5052560;28;20080;-45
2022/12/31 04:10:52;;;;;;;1.20;1.20;;;;;;;18.95;100.00;96444.47;5050363;28;20091;-39
2022/12/31 04:13:20;;;;;;;1.10;1.10;;;;;;;19.51;93.59;96454.16;5053689;28;20560;-37
2022/12/31 04:15:50;;;;;;;1.10;1.10;;;;;;;19.56;91.84;96451.72;5049957;28;20041;-47
2022/12/31 04:18:19;;;;;;;1.00;1.00;;;;;;;19.52;92.83;96466.53;5056137;28;20077;-38
2022/12/31 04:20:48;;;;;;;1.30;1.20;;;;;;;19.88;87.32;96460.88;5055506;28;20080;-41
2022/12/31 04:23:17;;;;;;;1.10;1.10;;;;;;;19.89;86.58;96465.22;5047567;28;20056;-41
2022/12/31 04:25:46;;;;;;;1.35;1.10;;;;;;;19.55;92.80;96453.56;5053477;28;20073;-41
2022/12/31 04:28:14;;;;;;;1.00;1.00;;;;;;;19.72;88.32;96450.53;5055170;28;20092;-40
2022/12/31 04:30:43;;;;;;;1.13;1.02;;;;;;;20.18;82.23;96460.53;5049078;28;20825;-39
2022/12/31 04:33:12;;;;;;;1.67;1.00;;;;;;;20.02;83.92;96461.72;5053767;28;20099;-36
2022/12/31 04:35:40;;;;;;;1.02;1.02;;;;;;;20.02;84.66;96469.75;5056841;28;20473;-40
2022/12/31 04:38:10;;;;;;;1.00;1.00;;;;;;;19.99;85.20;96473.66;5056367;28;20060;-38
2022/12/31 04:41:15;;;;;;;1.00;1.00;;;;;;;19.61;89.09;96468.84;5055311;28;20077;-39
2022/12/31 04:43:26;;;;;;;1.10;1.00;;;;;;;20.29;83.67;96463.41;5057423;28;20095;-46
2022/12/31 04:45:55;;;;;;;0.90;0.90;;;;;;;19.89;83.26;96463.38;5051524;28;20080;-37
2022/12/31 04:48:23;;;;;;;1.00;1.00;;;;;;;20.45;79.45;96470.22;5052331;28;20097;-39
2022/12/31 04:50:52;;;;;;;0.90;0.90;;;;;;;20.30;81.20;96475.78;5060403;28;20083;-44
2022/12/31 04:53:23;;;;;;;1.10;1.00;;;;;;;20.06;82.51;96469.16;5052861;28;20099;-37
2022/12/31 04:55:51;;;;;;;0.90;0.90;;;;;;;20.23;78.98;96466.06;5055255;28;20083;-41
2022/12/31 04:58:20;;;;;;;1.02;1.02;;;;;;;20.40;78.48;96475.34;5055869;28;20096;-39
2022/12/31 05:00:50;;;;;;;1.00;1.00;;;;;;;20.08;82.42;96480.47;5056160;28;20072;-41
2022/12/31 05:03:18;;;;;;;1.85;1.10;;;;;;;20.43;78.00;96476.78;5050278;28;20084;-37
2022/12/31 05:05:48;;;;;;;1.00;1.00;;;;;;;20.41;80.21;96479.69;5052447;28;20491;-46
2022/12/31 05:08:17;;;;;;;1.23;1.13;;;;;;;20.40;77.43;96486.06;5059914;28;20052;-42
2022/12/31 05:10:48;;;;;;;1.95;1.00;;;;;;;20.34;77.42;96482.38;5055487;28;20080;-41
2022/12/31 05:13:17;;;;;;;1.00;1.00;;;;;;;20.21;80.66;96489.56;5053040;28;20072;-37
2022/12/31 05:15:46;;;;;;;0.90;0.90;;;;;;;20.12;80.24;96491.59;5056950;28;20079;-40
2022/12/31 05:18:14;;;;;;;0.90;0.90;;;;;;;20.18;78.85;96498.00;5050855;28;20048;-37
2022/12/31 05:20:43;;;;;;;0.93;0.93;;;;;;;20.06;80.27;96492.41;5072205;28;20069;-38
2022/12/31 05:23:12;;;;;;;1.88;1.00;;;;;;;20.31;78.93;96484.63;5054229;28;20088;-38
2022/12/31 05:25:41;;;;;;;1.50;0.90;;;;;;;20.26;80.34;96493.25;5049650;28;20072;-40
2022/12/31 05:28:11;;;;;;;0.90;0.90;;;;;;;20.04;81.00;96484.59;5056268;28;20445;-38
2022/12/31 05:30:40;;;;;;;0.90;0.90;;;;;;;20.37;78.40;96491.81;5055863;28;20091;-38
2022/12/31 05:33:08;;;;;;;1.30;0.90;;;;;;;20.15;82.74;96502.72;5052923;28;20072;-42
2022/12/31 05:35:37;;;;;;;0.93;0.93;;;;;;;19.95;81.29;96501.88;5063689;28;20068;-43
2022/12/31 05:38:05;;;;;;;1.10;1.00;;;;;;;20.29;80.75;96506.25;5050094;28;20075;-37
2022/12/31 05:40:34;;;;;;;1.00;1.00;;;;;;;19.88;84.72;96498.34;5052897;28;20033;-40
2022/12/31 05:43:02;;;;;;;2.05;1.00;;;;;;;20.32;79.95;96515.72;5056586;28;20064;-36
2022/12/31 05:45:32;;;;;;;0.90;0.90;;;;;;;20.63;77.63;96507.94;5056431;28;20539;-42
2022/12/31 05:48:00;;;;;;;0.95;0.95;;;;;;;20.55;79.03;96510.03;5055416;28;20457;-40
2022/12/31 05:50:29;;;;;;;0.90;0.90;;;;;;;20.03;86.36;96512.41;5054139;28;20099;-37
2022/12/31 05:52:57;;;;;;;0.93;0.90;;;;;;;20.21;85.42;96509.13;5058276;28;20072;-43
2022/12/31 05:55:25;;;;;;;0.85;0.85;;;;;;;20.17;85.44;96509.75;5056211;28;20547;-41
2022/12/31 05:57:54;;;;;;;1.25;1.00;;;;;;;20.07;90.17;96502.94;5053909;28;20068;-38
2022/12/31 06:00:22;;;;;;;0.90;0.90;;;;;;;20.32;88.34;96502.34;5053714;28;20067;-38
2022/12/31 06:02:52;;;;;;;1.10;1.00;;;;;;;20.59;85.67;96508.56;5052662;28;20091;-39
2022/12/31 06:05:20;;;;;;;1.13;1.00;;;;;;;20.44;84.11;96516.78;5060379;28;20080;-42
2022/12/31 06:07:53;;;;;;;0.90;0.90;;;;;;;20.49;83.24;96506.25;5050945;28;20448;-39
2022/12/31 06:10:21;;;;;;;0.95;0.93;;;;;;;20.25;85.91;96513.03;5049525;28;20083;-43
2022/12/31 06:12:50;;;;;;;0.90;0.90;;;;;;;20.84;81.17;96509.56;5051554;28;20134;-43
2022/12/31 06:15:18;;;;;;;1.05;0.88;;;;;;;20.32;83.73;96515.72;5053988;28;20076;-43
2022/12/31 06:17:46;;;;;;;0.90;0.90;;;;;;;20.45;84.97;96514.94;5050816;28;20041;-44
2022/12/31 06:20:16;;;;;;;0.90;0.90;;;;;;;20.42;85.13;96523.38;5057495;28;20079;-41
2022/12/31 06:22:44;;;;;;;0.90;0.90;;;;;;;20.37;84.93;96524.81;5059127;28;20076;-42
2022/12/31 06:25:13;;;;;;;1.00;1.00;;;;;;;20.24;84.51;96530.16;5050283;28;20080;-42
2022/12/31 06:27:41;;;;;;;1.25;0.90;;;;;;;20.33;81.80;96525.41;5051171;28;20107;-38
2022/12/31 06:30:11;;;;;;;1.05;0.90;;;;;;;20.44;84.23;96532.00;5053936;28;20552;-45
2022/12/31 06:32:39;;;;;;;0.90;0.90;;;;;;;20.56;81.63;96541.94;5051309;28;20091;-40
2022/12/31 06:35:08;;;;;;;1.10;0.90;;;;;;;20.81;79.72;96534.09;5057418;28;20558;-40
2022/12/31 06:37:37;;;;;;;2.05;0.93;;;;;;;20.83;76.34;96524.00;5050675;28;20469;-46
2022/12/31 06:40:07;;;;;;;1.10;1.00;;;;;;;20.51;78.31;96528.38;5055185;28;20084;-43
2022/12/31 06:42:36;;;;;;;1.20;1.10;;;;;;;20.62;78.26;96530.41;5051429;28;20559;-44
2022/12/31 06:45:05;;;;;;;1.20;1.10;;;;;;;20.32;80.89;96526.44;5052312;28;20077;-39
2022/12/31 06:47:33;;;;;;;1.52;1.10;;;;;;;20.65;77.92;96536.38;5054768;28;20081;-43
2022/12/31 06:50:02;;;;;;;1.10;1.00;;;;;;;20.73;75.58;96538.88;5052789;28;20141;-40
2022/12/31 06:52:30;;;;;;;1.42;1.30;;;;;;;20.60;76.98;96537.81;5052145;28;20095;-41
2022/12/31 06:55:01;;;;;;;1.73;1.20;;;;;;;20.49;79.42;96533.06;5051963;28;20095;-45
2022/12/31 06:57:29;;;;;;;1.10;1.00;;;;;;;20.30;83.67;96537.38;5051702;28;20468;-38
2022/12/31 06:59:58;;;;;;;1.00;1.00;;;;;;;20.55;82.43;96553.72;5049056;28;20481;-40
2022/12/31 07:02:38;;;;;;;1.02;1.00;;;;;;;20.57;78.48;96548.94;5049570;28;20578;-38
2022/12/31 07:05:18;;;;;;;1.05;1.00;;;;;;;20.58;77.75;96555.16;5050228;28;20555;-41
2022/12/31 07:07:52;;;;;;;0.90;0.90;;;;;;;20.68;78.18;96555.56;5051232;28;20087;-39
2022/12/31 07:10:27;;;;;;;0.90;0.90;;;;;;;20.82;75.19;96553.72;5048334;28;20084;-38
2022/12/31 07:13:10;;;;;;;0.90;0.90;;;;;;;20.55;75.65;96564.44;5049575;28;20080;-38
2022/12/31 07:15:48;;;;;;;1.38;1.00;;;;;;;21.00;70.23;96561.13;5046796;28;20088;-38
2022/12/31 07:18:24;;;;;;;0.90;0.90;;;;;;;20.96;73.30;96565.25;5049808;28;20087;-38
2022/12/31 07:20:53;;;;;;;1.10;1.00;;;;;;;21.19;70.43;96562.94;5053825;28;20476;-40
2022/12/31 07:23:22;;;;;;;1.00;1.00;;;;;;;21.22;69.75;96562.53;5051568;28;20077;-43
2022/12/31 07:25:56;;;;;;;0.90;0.90;;;;;;;21.17;69.33;96553.47;5048416;28;20084;-40
2022/12/31 07:28:35;;;;;;;1.10;1.10;;;;;;;20.79;71.07;96560.31;5051960;28;20080;-42
2022/12/31 07:31:07;;;;;;;0.90;0.90;;;;;;;21.07;70.05;96568.13;5052201;28;20068;-41
2022/12/31 07:33:52;;;;;;;2.67;1.10;;;;;;;21.14;69.87;96568.13;5049079;28;20477;-38
2022/12/31 07:36:30;;;;;;;1.10;1.00;;;;;;;21.03;71.71;96577.63;5048392;28;20084;-39
2022/12/31 07:39:03;;;;;;;1.15;0.90;;;;;;;20.88;71.27;96585.03;5048901;28;20662;-40
2022/12/31 07:41:42;;;;;;;1.15;1.10;;;;;;;20.91;74.22;96587.31;5047687;28;20541;-42
2022/12/31 07:44:18;;;;;;;1.05;1.05;;;;;;;20.80;73.97;96590.63;5051052;28;20091;-38
2022/12/31 07:46:54;;;;;;;1.38;1.27;;;;;;;21.13;69.96;96589.75;5053495;28;20463;-41
2022/12/31 07:49:23;;;;;;;1.02;1.02;;;;;;;21.28;68.78;96587.69;5053094;28;20532;-44
2022/12/31 07:51:52;;;;;;;1.27;1.10;;;;;;;21.30;68.41;96589.16;5049140;28;20484;-40
2022/12/31 07:54:21;;;;;;;1.00;1.00;;;;;;;21.06;71.72;96596.00;5048871;28;20735;-45
2022/12/31 07:56:50;;;;;;;1.98;1.00;;;;;;;21.05;70.94;96602.34;5051790;28;20996;-38
2022/12/31 07:59:32;;;;;;;1.17;1.08;;;;;;;20.74;73.19;96608.34;5050886;28;20085;-45
2022/12/31 08:02:03;;;;;;;1.08;0.93;;;;;;;21.14;71.32;96610.22;5049991;28;20083;-40
2022/12/31 08:04:36;;;;;;;1.15;1.05;;;;;;;21.23;70.96;96606.25;5050796;28;20083;-39
2022/12/31 08:07:13;;;;;;;3.15;2.50;;;;;;;20.82;78.31;96610.00;5048967;28;20080;-39
2022/12/31 08:09:46;;;;;;;1.70;1.60;;;;;;;20.89;78.35;96621.56;5047331;28;20084;-38
2022/12/31 08:12:17;;;;;;;1.30;1.20;;;;;;;20.96;78.78;96624.25;5053268;28;20717;-41
2022/12/31 08:14:47;;;;;;;1.17;1.13;;;;;;;20.69;80.88;96618.84;5048760;28;20057;-43
2022/12/31 08:17:17;;;;;;;1.10;1.10;;;;;;;20.90;77.55;96615.16;5053085;28;20777;-45
2022/12/31 08:19:46;;;;;;;1.30;1.20;;;;;;;20.73;79.91;96612.06;5055579;28;20091;-41
2022/12/31 08:22:39;;;;;;;1.20;1.10;;;;;;;20.87;77.30;96618.25;5057422;28;20107;-39
2022/12/31 08:25:14;;;;;;;1.20;1.10;;;;;;;20.63;81.53;96619.66;5057557;28;20091;-37
2022/12/31 08:27:50;;;;;;;1.40;1.30;;;;;;;20.65;81.46;96617.63;5056463;28;20087;-40
2022/12/31 08:30:20;;;;;;;1.20;1.10;;;;;;;20.89;78.57;96621.56;5054849;28;20084;-44
2022/12/31 08:32:51;;;;;;;1.50;1.20;;;;;;;21.08;75.42;96628.75;5056771;28;20081;-40
2022/12/31 08:35:29;;;;;;;1.30;1.20;;;;;;;20.90;75.92;96617.03;5053367;28;20095;-38
2022/12/31 08:38:02;;;;;;;1.38;1.27;;;;;;;20.93;71.95;96621.97;5056571;28;20088;-40
2022/12/31 08:40:43;;;;;;;1.40;1.30;;;;;;;20.71;73.82;96621.31;5053479;28;20542;-39
2022/12/31 08:43:22;;;;;;;1.25;1.15;;;;;;;20.97;70.11;96615.16;5056850;28;20076;-37
2022/12/31 08:45:51;;;;;;;1.77;1.30;;;;;;;22.64;60.58;96609.13;5052259;28;20450;-41
2022/12/31 08:48:26;;;;;;;1.63;1.37;;;;;;;22.76;55.65;96614.59;5055365;28;20092;-36
2022/12/31 08:50:55;;;;;;;1.45;1.35;;;;;;;20.80;71.59;96628.97;5053211;28;20131;-40
2022/12/31 08:53:24;;;;;;;1.45;1.30;;;;;;;20.44;79.94;96625.78;5054941;28;20092;-38
2022/12/31 08:55:56;;;;;;;1.40;1.30;;;;;;;20.39;82.18;96629.06;5055873;28;20091;-37
2022/12/31 08:58:36;;;;;;;1.35;1.25;;;;;;;20.78;77.10;96635.56;5057715;28;20567;-38
2022/12/31 09:01:05;;;;;;;1.30;1.20;;;;;;;20.81;72.31;96637.81;5056912;28;20084;-43
2022/12/31 09:03:54;;;;;;;1.13;1.08;;;;;;;21.03;70.95;96635.78;5056089;28;20524;-39
2022/12/31 09:06:26;;;;;;;1.38;1.20;;;;;;;;;;5056550;28;20080;-40
2022/12/31 09:08:58;;;;;;;1.30;1.20;;;;;;;21.28;68.26;96636.81;5058431;28;20092;-37
2022/12/31 09:11:31;;;;;;;1.63;1.20;;;;;;;21.51;66.56;96625.66;5052741;28;20155;-45
2022/12/31 09:14:31;;;;;;;1.40;1.17;;;;;;;21.37;66.92;96631.25;5055392;28;20088;-37
2022/12/31 09:17:03;;;;;;;1.25;1.10;;;;;;;21.46;65.61;96636.19;5055132;28;20091;-44
2022/12/31 09:19:31;;;;;;;1.35;1.00;;;;;;;21.46;66.23;96633.50;5058938;28;20080;-45
2022/12/31 09:22:00;;;;;;;2.38;1.10;;;;;;;21.56;65.41;96631.22;5061467;28;20520;-42
2022/12/31 09:24:28;;;;;;;1.83;1.10;;;;;;;21.19;67.22;96640.72;5059605;28;20504;-42
2022/12/31 09:27:05;;;;;;;1.10;1.10;;;;;;;21.21;70.64;96632.47;5062662;28;20087;-38
2022/12/31 09:29:48;;;;;;;1.10;1.00;;;;;;;21.43;71.29;96639.28;5060390;28;20092;-37
2022/12/31 09:32:23;;;;;;;1.13;1.05;;;;;;;21.32;72.84;96639.91;5060703;28;20528;-43
2022/12/31 09:34:55;;;;;;;1.20;1.10;;;;;;;21.47;72.50;96629.81;5076294;28;20064;-40
2022/12/31 09:37:36;;;;;;;3.13;1.40;;;;;;;21.63;71.51;96627.69;5060984;28;20076;-40
2022/12/31 09:40:31;;;;;;;9.73;8.30;;;;;;;21.78;70.25;96620.22;5058305;28;20060;-38
2022/12/31 09:43:53;;;;;;;7.13;6.47;;;;;;;21.67;70.53;96623.56;5060756;28;20291;-40
2022/12/31 09:47:00;;;;;;;2.70;1.52;;;;;;;21.90;68.34;96626.59;4999549;28;20081;-38
2022/12/31 09:50:06;;;;;;;3.17;1.80;;;;;;;21.85;68.51;96623.72;5001672;28;20082;-39
2022/12/31 09:52:47;;;;;;;1.55;1.30;;;;;;;21.74;74.83;96630.56;5059083;28;20091;-38
2022/12/31 09:55:28;;;;;;;1.48;1.23;;;;;;;21.38;79.71;96625.69;5056546;28;20137;-42
2022/12/31 09:57:58;;;;;;;;;;;;;;;21.79;74.46;96633.44;5060745;28;20076;-42
2022/12/31 10:00:33;;;;;;;1.30;1.20;;;;;;;21.82;73.12;96632.22;5060098;28;20635;-40
2022/12/31 10:03:23;;;;;;;1.70;1.40;;;;;;;21.74;75.96;96635.09;5061722;28;20071;-39
2022/12/31 10:06:04;;;;;;;1.30;1.20;;;;;;;21.95;75.23;96632.13;5061844;28;21033;-43
2022/12/31 10:08:42;;;;;;;1.50;1.40;;;;;;;21.97;75.21;96630.06;5061136;28;20048;-45
2022/12/31 10:11:16;;;;;;;1.23;1.08;;;;;;;22.08;74.69;96625.91;5058595;28;20068;-46
2022/12/31 10:13:57;;;;;;;1.60;1.50;;;;;;;22.12;70.37;96624.44;5059794;28;20464;-42
2022/12/31 10:16:38;;;;;;;2.10;1.40;;;;;;;22.20;66.21;96615.34;5059692;28;20072;-41
2022/12/31 10:19:39;;;;;;;1.33;1.23;;;;;;;22.26;61.94;96611.78;5059308;28;20457;-44
2022/12/31 10:22:26;;;;;;;1.52;1.40;;;;;;;22.28;64.26;96612.41;5044096;28;20437;-39
2022/12/31 10:25:14;;;;;;;3.90;2.20;;;;;;;22.38;64.29;96611.94;5060649;28;20087;-46
2022/12/31 10:27:49;;;;;;;3.22;2.30;;;;;;;22.39;63.92;96605.53;5055945;28;20076;-41
2022/12/31 10:30:19;;;;;;;3.05;2.10;;;;;;;22.32;67.14;96610.94;5053943;28;20064;-40
2022/12/31 10:32:59;;;;;;;3.28;1.95;;;;;;;22.33;64.96;96612.56;5048914;28;20497;-39
2022/12/31 10:35:39;;;;;;;5.63;2.00;;;;;;;22.28;65.71;96615.91;5053690;28;20094;-48
2022/12/31 10:38:19;;;;;;;2.03;1.38;;;;;;;22.34;62.98;96619.63;5055834;28;20095;-40
2022/12/31 10:41:17;;;;;;;1.70;1.30;;;;;;;22.36;62.25;96604.09;5054838;28;20189;-46
2022/12/31 10:44:04;;;;;;;2.13;1.40;;;;;;;22.42;61.27;96595.16;5033776;28;20080;-39
2022/12/31 10:46:55;;;;;;;2.92;1.50;;;;;;;22.48;60.97;96597.00;5049028;28;20076;-41
2022/12/31 10:49:53;;;;;;;3.33;1.92;;;;;;;22.52;60.35;96592.84;5049075;28;20555;-41
2022/12/31 10:52:50;;;;;;;3.22;2.17;;;;;;;22.52;60.08;96600.06;5054100;28;20079;-45
2022/12/31 10:56:04;;;;;;;3.05;1.90;;;;;;;22.50;60.26;96592.25;5053687;28;20076;-46
2022/12/31 10:59:08;;;;;;;1.20;1.10;;;;;;;22.62;61.64;96592.38;5051768;28;20099;-40
2022/12/31 11:01:46;;;;;;;1.25;1.00;;;;;;;22.71;61.13;96593.75;5051458;28;20555;-43
2022/12/31 11:04:40;;;;;;;2.00;1.05;;;;;;;22.84;63.18;96606.25;5053733;28;20060;-40
2022/12/31 11:07:45;;;;;;;1.30;0.90;;;;;;;23.01;69.78;96598.50;5048906;28;20085;-42
2022/12/31 11:10:35;;;;;;;1.60;0.93;;;;;;;23.03;68.07;96604.50;5040920;28;20079;-38
2022/12/31 11:13:25;;;;;;;1.17;0.98;;;;;;;23.13;64.16;96593.25;5052518;28;20103;-46
2022/12/31 11:16:15;;;;;;;1.17;1.08;;;;;;;23.16;63.85;96595.50;5050342;28;20084;-41
2022/12/31 11:18:47;;;;;;;;;;;;;;;23.10;73.62;96599.06;5054108;28;20103;-40
2022/12/31 11:21:21;;;;;;;2.08;1.80;;;;;;;22.27;100.00;96602.72;5055264;28;19963;-39
2022/12/31 11:24:00;;;;;;;2.53;2.10;;;;;;;22.70;95.08;96593.97;5050345;28;20072;-47
2022/12/31 11:26:40;;;;;;;3.70;2.63;;;;;;;22.75;90.25;96594.16;5050245;28;20076;-38
2022/12/31 11:29:18;;;;;;;1.80;1.30;;;;;;;22.58;89.19;96601.91;5049554;28;20087;-45
2022/12/31 11:32:06;;;;;;;2.30;1.48;;;;;;;22.72;91.05;96599.94;5054497;28;20091;-38
2022/12/31 11:35:08;;;;;;;4.68;1.63;;;;;;;22.95;82.75;96589.47;5056565;28;20072;-38
2022/12/31 11:37:44;;;;;;;1.67;1.20;;;;;;;22.88;85.19;96582.44;5050577;28;20080;-37
2022/12/31 11:40:25;;;;;;;1.33;1.15;;;;;;;22.69;80.04;96582.38;5052579;28;20076;-40
2022/12/31 11:42:57;;;;;;;1.20;1.10;;;;;;;23.01;76.64;96578.84;5050564;28;20441;-39
2022/12/31 11:45:38;;;;;;;3.05;2.45;;;;;;;23.07;92.69;96576.13;5051968;28;20091;-39
2022/12/31 11:48:16;;;;;;;2.20;1.20;;;;;;;23.00;92.34;96577.22;5054668;28;20080;-40
2022/12/31 11:51:10;;;;;;;1.75;1.20;;;;;;;22.95;86.20;96567.94;5050953;28;20633;-40
2022/12/31 11:54:00;;;;;;;1.95;1.13;;;;;;;23.12;84.30;96576.25;5054000;28;20091;-46
2022/12/31 11:56:32;;;;;;;1.30;1.17;;;;;;;22.67;84.45;96572.88;5051214;28;20081;-42
2022/12/31 11:59:07;;;;;;;1.92;1.27;;;;;;;22.79;80.72;96571.16;5051733;28;20088;-41
2022/12/31 12:01:51;;;;;;;1.92;1.20;;;;;;;22.84;80.18;96576.69;5051162;28;21096;-44
2022/12/31 12:04:21;;;;;;;1.95;1.33;;;;;;;22.63;81.51;96577.06;5052892;28;20073;-44
2022/12/31 12:06:49;;;;;;;1.80;1.10;;;;;;;22.90;80.00;96577.69;5051310;28;20104;-39
2022/12/31 12:09:25;;;;;;;1.60;1.27;;;;;;;23.11;77.30;96571.13;5054222;28;20485;-43